AAL25 KONT-KSAN
Flight info
| Callsign | AAL25 |
|---|---|
| Flight time | 0h 47m |
| Altitude | 11000 |
| Route | PDZ V186 HAILE V66 MZB |
| Aircraft | B738/M-SDE2E3FGHIRWXY/LB1 |
Departure
| Time | 2026-04-26 22:51 |
|---|---|
| Airport | Ontario International Airport (KONT) |
Arrival
| Time | 2026-04-26 23:39 |
|---|---|
| Airport | San Diego International Airport (KSAN) |
| Time | Latitude | Longitude | Altitude | Speed | Heading |
|---|---|---|---|---|---|
| 2026-04-26 22:31 | 34.05992 | -117.59007 | 943 ft | 0 kts | 4° |
| 2026-04-26 22:41 | 34.05982 | -117.59008 | 943 ft | 2 kts | 4° |
| 2026-04-26 22:42 | 34.05971 | -117.59009 | 942 ft | 2 kts | 4° |
| 2026-04-26 22:42 | 34.05957 | -117.59010 | 942 ft | 2 kts | 4° |
| 2026-04-26 22:42 | 34.05942 | -117.59011 | 941 ft | 2 kts | 4° |
| 2026-04-26 22:42 | 34.05923 | -117.59016 | 940 ft | 2 kts | 30° |
| 2026-04-26 22:43 | 34.05911 | -117.59028 | 939 ft | 2 kts | 50° |
| 2026-04-26 22:43 | 34.05905 | -117.59037 | 939 ft | 2 kts | 63° |
| 2026-04-26 22:43 | 34.05901 | -117.59054 | 938 ft | 2 kts | 83° |
| 2026-04-26 22:43 | 34.05900 | -117.59065 | 938 ft | 1 kts | 90° |
| 2026-04-26 22:44 | 34.05900 | -117.59066 | 938 ft | 0 kts | 90° |
| 2026-04-26 22:47 | 34.05901 | -117.59058 | 938 ft | 1 kts | 87° |
| 2026-04-26 22:47 | 34.05901 | -117.59031 | 939 ft | 6 kts | 88° |
| 2026-04-26 22:47 | 34.05902 | -117.58916 | 940 ft | 19 kts | 89° |
| 2026-04-26 22:47 | 34.05901 | -117.58678 | 941 ft | 23 kts | 91° |
| 2026-04-26 22:48 | 34.05901 | -117.58536 | 941 ft | 26 kts | 89° |
| 2026-04-26 22:48 | 34.05900 | -117.58386 | 941 ft | 0 kts | 88° |
| 2026-04-26 22:49 | 34.05901 | -117.58330 | 941 ft | 12 kts | 89° |
| 2026-04-26 22:50 | 34.05868 | -117.58255 | 940 ft | 18 kts | 155° |
| 2026-04-26 22:50 | 34.05792 | -117.58274 | 938 ft | 9 kts | 148° |
| 2026-04-26 22:50 | 34.05721 | -117.58260 | 935 ft | 18 kts | 202° |
| 2026-04-26 22:50 | 34.05689 | -117.58354 | 934 ft | 0 kts | 266° |
| 2026-04-26 22:51 | 34.05689 | -117.58360 | 934 ft | 9 kts | 269° |
| 2026-04-26 22:51 | 34.05689 | -117.58865 | 931 ft | 100 kts | 269° |
| 2026-04-26 22:51 | 34.05685 | -117.60020 | 999 ft | 171 kts | 267° |
| 2026-04-26 22:51 | 34.05695 | -117.62095 | 2092 ft | 197 kts | 267° |
| 2026-04-26 22:52 | 34.05697 | -117.63140 | 2936 ft | 192 kts | 265° |
| 2026-04-26 22:52 | 34.05318 | -117.64851 | 3120 ft | 233 kts | 241° |
| 2026-04-26 22:52 | 34.04223 | -117.66357 | 3676 ft | 248 kts | 215° |
| 2026-04-26 22:52 | 34.02614 | -117.66941 | 4525 ft | 251 kts | 180° |
| 2026-04-26 22:53 | 34.01001 | -117.66224 | 5361 ft | 257 kts | 145° |
| 2026-04-26 22:53 | 33.99746 | -117.64677 | 6200 ft | 259 kts | 136° |
| 2026-04-26 22:53 | 33.98525 | -117.63082 | 6926 ft | 262 kts | 135° |
| 2026-04-26 22:53 | 33.97307 | -117.61488 | 7638 ft | 265 kts | 135° |
| 2026-04-26 22:54 | 33.96065 | -117.59863 | 8391 ft | 264 kts | 134° |
| 2026-04-26 22:54 | 33.94820 | -117.58239 | 9052 ft | 266 kts | 133° |
| 2026-04-26 22:54 | 33.93579 | -117.56618 | 9679 ft | 267 kts | 133° |
| 2026-04-26 22:54 | 33.92318 | -117.54969 | 10271 ft | 269 kts | 132° |
| 2026-04-26 22:55 | 33.90845 | -117.52371 | 10255 ft | 295 kts | 126° |
| 2026-04-26 22:55 | 33.89822 | -117.51265 | 10206 ft | 306 kts | 144° |
| 2026-04-26 22:55 | 33.88000 | -117.49764 | 10326 ft | 329 kts | 145° |
| 2026-04-26 22:55 | 33.86140 | -117.48222 | 11002 ft | 324 kts | 144° |
| 2026-04-26 22:56 | 33.84290 | -117.46669 | 10885 ft | 328 kts | 144° |
| 2026-04-26 22:56 | 33.82403 | -117.45090 | 10995 ft | 331 kts | 143° |
| 2026-04-26 22:56 | 33.80514 | -117.43507 | 10992 ft | 332 kts | 143° |
| 2026-04-26 22:56 | 33.78616 | -117.41918 | 10991 ft | 332 kts | 143° |
| 2026-04-26 22:57 | 33.76725 | -117.40337 | 10990 ft | 332 kts | 143° |
| 2026-04-26 22:57 | 33.74830 | -117.38752 | 10985 ft | 331 kts | 143° |
| 2026-04-26 22:57 | 33.72960 | -117.37189 | 10983 ft | 332 kts | 143° |
| 2026-04-26 22:57 | 33.71069 | -117.35610 | 10980 ft | 332 kts | 143° |
| 2026-04-26 22:58 | 33.69164 | -117.34021 | 10984 ft | 332 kts | 144° |
| 2026-04-26 22:58 | 33.67279 | -117.32449 | 10986 ft | 332 kts | 144° |
| 2026-04-26 22:58 | 33.65388 | -117.30872 | 10968 ft | 332 kts | 144° |
| 2026-04-26 22:58 | 33.63470 | -117.29273 | 10937 ft | 331 kts | 144° |
| 2026-04-26 22:59 | 33.61585 | -117.27703 | 10936 ft | 331 kts | 144° |
| 2026-04-26 22:59 | 33.59707 | -117.26141 | 10940 ft | 331 kts | 144° |
| 2026-04-26 22:59 | 33.57820 | -117.24572 | 10943 ft | 332 kts | 144° |
| 2026-04-26 22:59 | 33.55920 | -117.22992 | 10949 ft | 331 kts | 144° |
| 2026-04-26 23:00 | 33.54033 | -117.21423 | 10955 ft | 331 kts | 144° |
| 2026-04-26 23:00 | 33.52145 | -117.19855 | 10960 ft | 331 kts | 144° |
| 2026-04-26 23:00 | 33.50240 | -117.18274 | 10966 ft | 331 kts | 144° |
| 2026-04-26 23:00 | 33.48337 | -117.16747 | 10950 ft | 332 kts | 150° |
| 2026-04-26 23:01 | 33.46134 | -117.15939 | 10931 ft | 332 kts | 165° |
| 2026-04-26 23:01 | 33.43868 | -117.15379 | 10965 ft | 336 kts | 167° |
| 2026-04-26 23:01 | 33.41585 | -117.14866 | 10990 ft | 335 kts | 167° |
| 2026-04-26 23:01 | 33.39266 | -117.14362 | 10978 ft | 335 kts | 167° |
| 2026-04-26 23:02 | 33.36977 | -117.13872 | 10981 ft | 335 kts | 167° |
| 2026-04-26 23:02 | 33.34687 | -117.13384 | 10982 ft | 335 kts | 167° |
| 2026-04-26 23:02 | 33.32420 | -117.12904 | 10981 ft | 335 kts | 167° |
| 2026-04-26 23:02 | 33.30113 | -117.12415 | 10981 ft | 335 kts | 167° |
| 2026-04-26 23:03 | 33.27833 | -117.11932 | 10981 ft | 335 kts | 167° |
| 2026-04-26 23:03 | 33.25555 | -117.11450 | 10981 ft | 335 kts | 167° |
| 2026-04-26 23:03 | 33.23243 | -117.10960 | 10980 ft | 335 kts | 167° |
| 2026-04-26 23:03 | 33.20955 | -117.10477 | 10980 ft | 335 kts | 168° |
| 2026-04-26 23:04 | 33.18663 | -117.09993 | 10980 ft | 335 kts | 168° |
| 2026-04-26 23:04 | 33.16384 | -117.09512 | 10980 ft | 335 kts | 168° |
| 2026-04-26 23:04 | 33.14108 | -117.09032 | 10979 ft | 335 kts | 168° |
| 2026-04-26 23:04 | 33.11818 | -117.08549 | 10979 ft | 335 kts | 168° |
| 2026-04-26 23:05 | 33.09503 | -117.08061 | 10979 ft | 335 kts | 168° |
| 2026-04-26 23:05 | 33.07226 | -117.07548 | 10965 ft | 334 kts | 163° |
| 2026-04-26 23:05 | 33.05203 | -117.06288 | 10960 ft | 330 kts | 147° |
| 2026-04-26 23:05 | 33.03243 | -117.04780 | 10964 ft | 334 kts | 146° |
| 2026-04-26 23:06 | 33.01323 | -117.03281 | 10985 ft | 334 kts | 146° |
| 2026-04-26 23:06 | 32.99390 | -117.01767 | 10973 ft | 334 kts | 146° |
| 2026-04-26 23:06 | 32.97433 | -117.00228 | 10975 ft | 335 kts | 146° |
| 2026-04-26 23:06 | 32.95509 | -116.98711 | 10945 ft | 330 kts | 146° |
| 2026-04-26 23:07 | 32.93626 | -116.97221 | 10593 ft | 324 kts | 146° |
| 2026-04-26 23:07 | 32.91776 | -116.95745 | 10306 ft | 313 kts | 146° |
| 2026-04-26 23:07 | 32.89998 | -116.94317 | 9858 ft | 310 kts | 146° |
| 2026-04-26 23:07 | 32.88201 | -116.92854 | 9014 ft | 319 kts | 146° |
| 2026-04-26 23:08 | 32.86351 | -116.91328 | 8072 ft | 330 kts | 146° |
| 2026-04-26 23:08 | 32.84471 | -116.89758 | 7164 ft | 336 kts | 146° |
| 2026-04-26 23:08 | 32.82621 | -116.88203 | 7320 ft | 306 kts | 146° |
| 2026-04-26 23:08 | 32.80910 | -116.86762 | 7092 ft | 294 kts | 146° |
| 2026-04-26 23:09 | 32.79272 | -116.85376 | 7003 ft | 279 kts | 146° |
| 2026-04-26 23:09 | 32.77764 | -116.84081 | 7136 ft | 258 kts | 146° |
| 2026-04-26 23:09 | 32.76316 | -116.82824 | 6916 ft | 259 kts | 144° |
| 2026-04-26 23:09 | 32.75267 | -116.81105 | 7040 ft | 269 kts | 111° |
| 2026-04-26 23:10 | 32.74907 | -116.78944 | 7159 ft | 266 kts | 102° |
| 2026-04-26 23:10 | 32.74236 | -116.76928 | 7061 ft | 271 kts | 131° |
| 2026-04-26 23:10 | 32.72745 | -116.75747 | 7028 ft | 256 kts | 165° |
| 2026-04-26 23:10 | 32.70967 | -116.75649 | 6184 ft | 279 kts | 189° |
| 2026-04-26 23:11 | 32.69088 | -116.76299 | 5663 ft | 277 kts | 212° |
| 2026-04-26 23:11 | 32.67762 | -116.77897 | 4949 ft | 287 kts | 243° |
| 2026-04-26 23:11 | 32.67410 | -116.80161 | 4677 ft | 282 kts | 274° |
| 2026-04-26 23:11 | 32.67387 | -116.82355 | 4861 ft | 249 kts | 250° |
| 2026-04-26 23:12 | 32.66869 | -116.84294 | 4935 ft | 246 kts | 251° |
| 2026-04-26 23:12 | 32.66358 | -116.86208 | 5010 ft | 250 kts | 251° |
| 2026-04-26 23:12 | 32.65831 | -116.88157 | 4997 ft | 247 kts | 251° |
| 2026-04-26 23:12 | 32.65138 | -116.90740 | 4980 ft | 245 kts | 251° |
| 2026-04-26 23:13 | 32.64798 | -116.92025 | 4864 ft | 247 kts | 251° |
| 2026-04-26 23:13 | 32.64623 | -116.94003 | 5481 ft | 248 kts | 274° |
| 2026-04-26 23:13 | 32.65136 | -116.95991 | 5565 ft | 273 kts | 293° |
| 2026-04-26 23:13 | 32.66375 | -116.97699 | 4926 ft | 281 kts | 312° |
| 2026-04-26 23:14 | 32.67768 | -116.99436 | 3854 ft | 303 kts | 311° |
| 2026-04-26 23:14 | 32.69208 | -117.01248 | 3196 ft | 305 kts | 311° |
| 2026-04-26 23:14 | 32.70634 | -117.03051 | 2915 ft | 294 kts | 311° |
| 2026-04-26 23:14 | 32.71988 | -117.04765 | 2894 ft | 275 kts | 311° |
| 2026-04-26 23:15 | 32.73231 | -117.06339 | 2880 ft | 259 kts | 309° |
| 2026-04-26 23:15 | 32.74132 | -117.08120 | 2723 ft | 247 kts | 294° |
| 2026-04-26 23:15 | 32.74988 | -117.09837 | 2706 ft | 237 kts | 304° |
| 2026-04-26 23:15 | 32.76080 | -117.11327 | 2716 ft | 238 kts | 311° |
| 2026-04-26 23:16 | 32.77227 | -117.12730 | 2702 ft | 239 kts | 313° |
| 2026-04-26 23:16 | 32.78344 | -117.14053 | 4073 ft | 226 kts | 311° |
| 2026-04-26 23:16 | 32.79119 | -117.15784 | 4203 ft | 249 kts | 282° |
| 2026-04-26 23:16 | 32.79510 | -117.17739 | 4864 ft | 241 kts | 281° |
| 2026-04-26 23:17 | 32.79921 | -117.19788 | 4964 ft | 251 kts | 281° |
| 2026-04-26 23:17 | 32.80334 | -117.21828 | 4856 ft | 253 kts | 281° |
| 2026-04-26 23:17 | 32.80737 | -117.23822 | 4906 ft | 248 kts | 281° |
| 2026-04-26 23:17 | 32.81141 | -117.25803 | 4988 ft | 251 kts | 281° |
| 2026-04-26 23:18 | 32.81556 | -117.27829 | 5033 ft | 253 kts | 281° |
| 2026-04-26 23:18 | 32.81974 | -117.29868 | 5001 ft | 252 kts | 281° |
| 2026-04-26 23:18 | 32.82390 | -117.31895 | 5011 ft | 252 kts | 281° |
| 2026-04-26 23:18 | 32.82807 | -117.33935 | 5123 ft | 251 kts | 281° |
| 2026-04-26 23:19 | 32.83225 | -117.35970 | 4991 ft | 253 kts | 281° |
| 2026-04-26 23:19 | 32.83644 | -117.38019 | 5021 ft | 252 kts | 280° |
| 2026-04-26 23:19 | 32.83541 | -117.40031 | 4973 ft | 247 kts | 245° |
| 2026-04-26 23:19 | 32.82444 | -117.41533 | 4894 ft | 245 kts | 210° |
| 2026-04-26 23:20 | 32.80779 | -117.42035 | 4629 ft | 246 kts | 206° |
| 2026-04-26 23:20 | 32.80040 | -117.43674 | 4479 ft | 241 kts | 251° |
| 2026-04-26 23:20 | 32.79635 | -117.45640 | 4919 ft | 261 kts | 261° |
| 2026-04-26 23:20 | 32.79637 | -117.47712 | 5514 ft | 254 kts | 271° |
| 2026-04-26 23:21 | 32.79770 | -117.49845 | 5472 ft | 276 kts | 272° |
| 2026-04-26 23:21 | 32.79938 | -117.52119 | 4715 ft | 282 kts | 272° |
| 2026-04-26 23:21 | 32.80087 | -117.54315 | 5004 ft | 253 kts | 278° |
| 2026-04-26 23:21 | 32.80690 | -117.56267 | 5094 ft | 258 kts | 306° |
| 2026-04-26 23:22 | 32.82076 | -117.57597 | 5137 ft | 277 kts | 333° |
| 2026-04-26 23:22 | 32.84577 | -117.57977 | 5074 ft | 265 kts | 9° |
| 2026-04-26 23:22 | 32.85766 | -117.57671 | 5013 ft | 270 kts | 11° |
| 2026-04-26 23:22 | 32.87591 | -117.57192 | 4958 ft | 269 kts | 12° |
| 2026-04-26 23:23 | 32.89438 | -117.56696 | 5032 ft | 274 kts | 12° |
| 2026-04-26 23:23 | 32.91291 | -117.56203 | 4980 ft | 273 kts | 11° |
| 2026-04-26 23:23 | 32.93130 | -117.55711 | 4996 ft | 268 kts | 14° |
| 2026-04-26 23:23 | 32.94806 | -117.54748 | 5154 ft | 282 kts | 44° |
| 2026-04-26 23:24 | 32.95843 | -117.52842 | 4858 ft | 281 kts | 71° |
| 2026-04-26 23:24 | 32.96065 | -117.50779 | 5489 ft | 252 kts | 95° |
| 2026-04-26 23:24 | 32.95620 | -117.48609 | 5007 ft | 264 kts | 111° |
| 2026-04-26 23:24 | 32.95214 | -117.46478 | 5173 ft | 240 kts | 104° |
| 2026-04-26 23:25 | 32.94878 | -117.44526 | 5781 ft | 267 kts | 107° |
| 2026-04-26 23:25 | 32.94192 | -117.42142 | 5236 ft | 336 kts | 117° |
| 2026-04-26 23:25 | 32.93257 | -117.39416 | 5652 ft | 363 kts | 113° |
| 2026-04-26 23:25 | 32.92406 | -117.36743 | 3480 ft | 346 kts | 110° |
| 2026-04-26 23:26 | 32.91883 | -117.34237 | 3537 ft | 295 kts | 101° |
| 2026-04-26 23:26 | 32.91544 | -117.32137 | 4295 ft | 250 kts | 104° |
| 2026-04-26 23:26 | 32.91186 | -117.30102 | 4671 ft | 253 kts | 105° |
| 2026-04-26 23:26 | 32.90868 | -117.28146 | 4961 ft | 243 kts | 103° |
| 2026-04-26 23:27 | 32.90573 | -117.26193 | 5058 ft | 228 kts | 103° |
| 2026-04-26 23:27 | 32.90312 | -117.24370 | 5087 ft | 242 kts | 102° |
| 2026-04-26 23:27 | 32.90050 | -117.22462 | 5283 ft | 232 kts | 102° |
| 2026-04-26 23:27 | 32.89749 | -117.20423 | 4523 ft | 258 kts | 104° |
| 2026-04-26 23:28 | 32.89213 | -117.18469 | 4533 ft | 246 kts | 114° |
| 2026-04-26 23:28 | 32.88609 | -117.16625 | 5064 ft | 229 kts | 115° |
| 2026-04-26 23:28 | 32.88017 | -117.14837 | 4925 ft | 225 kts | 115° |
| 2026-04-26 23:28 | 32.87430 | -117.13099 | 4827 ft | 250 kts | 115° |
| 2026-04-26 23:29 | 32.86754 | -117.11162 | 4736 ft | 251 kts | 116° |
| 2026-04-26 23:29 | 32.86113 | -117.09277 | 4737 ft | 244 kts | 112° |
| 2026-04-26 23:29 | 32.85601 | -117.07446 | 4932 ft | 229 kts | 111° |
| 2026-04-26 23:29 | 32.85093 | -117.05610 | 4828 ft | 233 kts | 111° |
| 2026-04-26 23:30 | 32.84598 | -117.03831 | 4792 ft | 226 kts | 111° |
| 2026-04-26 23:30 | 32.84107 | -117.02068 | 4777 ft | 222 kts | 111° |
| 2026-04-26 23:30 | 32.83617 | -117.00321 | 4779 ft | 222 kts | 111° |
| 2026-04-26 23:30 | 32.83123 | -116.98576 | 4779 ft | 222 kts | 111° |
| 2026-04-26 23:31 | 32.82625 | -116.96832 | 4779 ft | 221 kts | 111° |
| 2026-04-26 23:31 | 32.82134 | -116.95128 | 4780 ft | 220 kts | 111° |
| 2026-04-26 23:31 | 32.81633 | -116.93404 | 4780 ft | 219 kts | 112° |
| 2026-04-26 23:31 | 32.81130 | -116.91685 | 4781 ft | 219 kts | 112° |
| 2026-04-26 23:32 | 32.80624 | -116.89980 | 4781 ft | 218 kts | 112° |
| 2026-04-26 23:32 | 32.80102 | -116.88294 | 4776 ft | 217 kts | 120° |
| 2026-04-26 23:32 | 32.79133 | -116.87019 | 4376 ft | 211 kts | 153° |
| 2026-04-26 23:32 | 32.77745 | -116.86687 | 4216 ft | 204 kts | 188° |
| 2026-04-26 23:33 | 32.76332 | -116.86953 | 4213 ft | 205 kts | 191° |
| 2026-04-26 23:33 | 32.74940 | -116.87240 | 4200 ft | 204 kts | 191° |
| 2026-04-26 23:33 | 32.73544 | -116.87527 | 4194 ft | 204 kts | 191° |
| 2026-04-26 23:33 | 32.72142 | -116.87811 | 4191 ft | 205 kts | 191° |
| 2026-04-26 23:34 | 32.70742 | -116.88094 | 4190 ft | 203 kts | 192° |
| 2026-04-26 23:34 | 32.69517 | -116.88855 | 4186 ft | 200 kts | 228° |
| 2026-04-26 23:34 | 32.68940 | -116.90326 | 4188 ft | 200 kts | 262° |
| 2026-04-26 23:34 | 32.69086 | -116.91979 | 3839 ft | 206 kts | 281° |
| 2026-04-26 23:35 | 32.69429 | -116.93645 | 3804 ft | 206 kts | 280° |
| 2026-04-26 23:35 | 32.69603 | -116.95306 | 3772 ft | 203 kts | 269° |
| 2026-04-26 23:35 | 32.69666 | -116.96970 | 3689 ft | 207 kts | 272° |
| 2026-04-26 23:35 | 32.69700 | -116.98710 | 3461 ft | 216 kts | 267° |
| 2026-04-26 23:36 | 32.69747 | -117.00508 | 2966 ft | 214 kts | 275° |
| 2026-04-26 23:36 | 32.69978 | -117.02243 | 3143 ft | 215 kts | 278° |
| 2026-04-26 23:36 | 32.70250 | -117.03986 | 3401 ft | 211 kts | 278° |
| 2026-04-26 23:36 | 32.70523 | -117.05663 | 3679 ft | 208 kts | 278° |
| 2026-04-26 23:37 | 32.70800 | -117.07368 | 3541 ft | 223 kts | 278° |
| 2026-04-26 23:37 | 32.71085 | -117.09105 | 3268 ft | 207 kts | 279° |
| 2026-04-26 23:37 | 32.71382 | -117.10731 | 2923 ft | 195 kts | 281° |
| 2026-04-26 23:37 | 32.71678 | -117.12292 | 2316 ft | 199 kts | 282° |
| 2026-04-26 23:38 | 32.72067 | -117.13911 | 1589 ft | 205 kts | 285° |
| 2026-04-26 23:38 | 32.72474 | -117.15462 | 921 ft | 199 kts | 287° |
| 2026-04-26 23:38 | 32.72857 | -117.16994 | 328 ft | 186 kts | 286° |
| 2026-04-26 23:38 | 32.73182 | -117.18284 | 32 ft | 136 kts | 287° |
| 2026-04-26 23:39 | 32.73376 | -117.19047 | 25 ft | 60 kts | 287° |
| 2026-04-26 23:39 | 32.73449 | -117.19398 | 25 ft | 31 kts | 262° |
| 2026-04-26 23:39 | 32.73408 | -117.19583 | 25 ft | 19 kts | 276° |
| 2026-04-26 23:39 | 32.73434 | -117.19717 | 25 ft | 13 kts | 285° |
| 2026-04-26 23:40 | 32.73456 | -117.19808 | 25 ft | 9 kts | 287° |
| 2026-04-26 23:40 | 32.73474 | -117.19879 | 25 ft | 10 kts | 284° |
| 2026-04-26 23:40 | 32.73438 | -117.19959 | 25 ft | 13 kts | 209° |
| 2026-04-26 23:40 | 32.73396 | -117.20042 | 25 ft | 6 kts | 254° |
| 2026-04-26 23:41 | 32.73394 | -117.20050 | 25 ft | 0 kts | 254° |